Kithnos, Greece
Current Conditions -  °F | °C
As of 8:50 AM on Tuesday 27 Jan 2015 (Local Time) from LGAV Reporting Station
Broken Clouds Broken Clouds  
Wind Chill: 46°   Ceiling: 7000
Heat Index: 46°   Visibility: 6mi
Dew Point: 43°   Wind: 3mph
Humidity: 87%   Direction: 260°W
Pressure: 29.94"   Gusts: NA
Location:  37.42°N, 24.43°E
Report Text: LGAV 270550Z 26003KT 9999 SCT025 BKN070 08/06 Q1014 NOSIG
Loading
Personal Weather Stations






























Interactive Weather Map New forecast layout! Learn more

10-Day Weather Forecast

Advertisements
Track Severe Weather on mobile